M I D A S
Marine Information and Data Acquisition System
Tripno 507 of the Zeeleeuw from 2003-05-28 06:13:01 to 2003-05-28 11:02:06
Back to CruiseResearch ActivitiesStationsMapUnderway DataData graphs

EquipmentUnitsComment
TimeDGPSUTC
LatitudeDGPSDM.mWGS84
LongitudeDGPSDM.mWGS84
HeadingGyrodeg 
SOGDGPSknotsSpeed over ground
COGDGPSdegCourse over ground
DepthEcho soundermeters200 kHz
Missing or incorrect values are displayed as -999
Navigation data collected by the RV Zeeleeuw from 2003-05-28 06:13:01 to 2003-05-28 11:02:06
                                                                                    Next 1000 lines
Time Latitude Longitude Heading SOG COG Depth
2003-05-28 06:13:11 51°13.61 2°56.09 128.1   260 6.6
2003-05-28 06:13:17 51°13.61 2°56.09 128.3   326 6.6
2003-05-28 06:13:21 51°13.61 2°56.09 128.4   164 6.8
2003-05-28 06:13:25 51°13.61 2°56.09 128.3   45 6.7
2003-05-28 06:13:31 51°13.61 2°56.09 128   61 6.7
2003-05-28 06:13:37 51°13.61 2°56.09 127.6   56 6.7
2003-05-28 06:13:41 51°13.61 2°56.09 127.1   47 6.6
2003-05-28 06:13:45 51°13.61 2°56.09 126.7   108 6.6
2003-05-28 06:13:51 51°13.61 2°56.09 126.2   188 6.6
2003-05-28 06:13:57 51°13.61 2°56.09 125.8   274 6.6
2003-05-28 06:14:01 51°13.61 2°56.09 125.6   201 6.7
2003-05-28 06:14:05 51°13.61 2°56.09 125.2   197 6.6
2003-05-28 06:14:11 51°13.61 2°56.09 124.8   208 6.6
2003-05-28 06:14:17 51°13.61 2°56.09 124.3   199 6.6
2003-05-28 06:14:21 51°13.61 2°56.09 123.8   204 6.7
2003-05-28 06:14:25 51°13.61 2°56.09 123.3   207 6.6
2003-05-28 06:14:31 51°13.61 2°56.09 122.7 0.1 204 6.7
2003-05-28 06:14:37 51°13.61 2°56.09 122.2 0.1 202 6.7
2003-05-28 06:14:41 51°13.61 2°56.09 121.6 0.1 202 6.8
2003-05-28 06:14:45 51°13.61 2°56.09 120.9 0.1 201 6.8
2003-05-28 06:14:51 51°13.61 2°56.09 120.2 0.1 202 6.8
2003-05-28 06:14:57 51°13.61 2°56.09 119.5 0.1 201 6.8
2003-05-28 06:15:01 51°13.61 2°56.09 118.6 0.1 200 6.8
2003-05-28 06:15:07 51°13.61 2°56.09 117.9 0.1 197 5.2
2003-05-28 06:15:11 51°13.61 2°56.09 117 0.1 198 6.9
2003-05-28 06:15:17 51°13.61 2°56.09 116.1 0.1 195 6.9
2003-05-28 06:15:21 51°13.61 2°56.09 115.3 0.1 198 6.9
2003-05-28 06:15:27 51°13.61 2°56.09 114.4 0.1 201 7.1
2003-05-28 06:15:31 51°13.61 2°56.09 113.5 0.1 220 7.1
2003-05-28 06:15:37 51°13.61 2°56.09 112.8 0.1 259 5.3
2003-05-28 06:15:41 51°13.61 2°56.09 112.5 0.4 282 7.2
2003-05-28 06:15:45 51°13.61 2°56.09 112.4 0.9 286 7.2
2003-05-28 06:15:51 51°13.61 2°56.08 112.5 1.2 287 7.1
2003-05-28 06:15:57 51°13.61 2°56.08 113.1 1.7 290 7.7
2003-05-28 06:16:01 51°13.61 2°56.07 114.2 2 291 -999
2003-05-28 06:16:07 51°13.61 2°56.07 114.9 2.5 293 -999
2003-05-28 06:16:13 51°13.61 2°56.06 115.3 2.7 293 -999
2003-05-28 06:16:19 51°13.61 2°56.06 115.3 3 293 -999
2003-05-28 06:16:23 51°13.62 2°56.05 115.3 3.2 294 -999
2003-05-28 06:16:29 51°13.62 2°56.04 115.4 3.5 293 -999
2003-05-28 06:16:33 51°13.62 2°56.04 115.3 3.7 293 -999
2003-05-28 06:16:39 51°13.62 2°56.03 114.8 3.9 292 -999
2003-05-28 06:16:45 51°13.62 2°56.02 114.3 4.1 291 -999
2003-05-28 06:16:49 51°13.63 2°56.01 113.7 4.3 290 -999
2003-05-28 06:16:55 51°13.63 2°56 113.3 4.4 289 -999
2003-05-28 06:17:01 51°13.63 2°55.99 113.2 4.4 289 -999
2003-05-28 06:17:05 51°13.63 2°55.98 113.5 4.4 288 -999
2003-05-28 06:17:11 51°13.63 2°55.97 113.9 4.5 288 -999
2003-05-28 06:17:17 51°13.64 2°55.96 114.5 4.5 289 -999
2003-05-28 06:17:21 51°13.64 2°55.95 115.2 4.6 289 -999
2003-05-28 06:17:25 51°13.64 2°55.94 115.4 4.6 288 -999
2003-05-28 06:17:31 51°13.64 2°55.93 115.4 4.6 289 -999
2003-05-28 06:17:37 51°13.65 2°55.92 115.9 4.6 289 -999
2003-05-28 06:17:41 51°13.65 2°55.91 116.8 4.7 290 -999
2003-05-28 06:17:45 51°13.65 2°55.9 117.5 4.8 291 -999
2003-05-28 06:17:51 51°13.65 2°55.89 118.5 5 293 -999
2003-05-28 06:17:57 51°13.66 2°55.88 119.9 5.2 294 -999
2003-05-28 06:18:01 51°13.66 2°55.87 121 5.3 296 -999
2003-05-28 06:18:07 51°13.66 2°55.86 121.9 5 297 -999
2003-05-28 06:18:11 51°13.67 2°55.85 122.8 4.8 298 -999
2003-05-28 06:18:17 51°13.67 2°55.84 124.2 4.2 299 -999
2003-05-28 06:18:21 51°13.67 2°55.84 125.2 3.6 300 9
2003-05-28 06:18:25 51°13.67 2°55.83 125.5 2.8 300 8.8
2003-05-28 06:18:29 51°13.67 2°55.83 125.3 1.9 300 8.7
2003-05-28 06:18:35 51°13.67 2°55.82 123.2 1.4 302 8.6
2003-05-28 06:18:39 51°13.68 2°55.82 120.5 1.1 302 8.7
2003-05-28 06:18:43 51°13.68 2°55.82 118.5 0.7 319 8.7
2003-05-28 06:18:47 51°13.68 2°55.82 115.5 0.2 330 8.7
2003-05-28 06:18:51 51°13.68 2°55.82 111.2 0.3 15 8.8
2003-05-28 06:18:57 51°13.68 2°55.82 108.1 0.2 1 8.8
2003-05-28 06:19:01 51°13.68 2°55.82 105.9 0.3 323 8.7
2003-05-28 06:19:07 51°13.68 2°55.82 103.7 0.7 298 8.8
2003-05-28 06:19:11 51°13.68 2°55.82 101.6 0.9 294 8.7
2003-05-28 06:19:17 51°13.68 2°55.82 99.8 1.3 288 8.7
2003-05-28 06:19:21 51°13.68 2°55.81 98.4 1.5 286 8.7
2003-05-28 06:19:25 51°13.68 2°55.81 96.9 1.8 283 5.9
2003-05-28 06:19:33 51°13.68 2°55.8 95 2.1 282 -999
2003-05-28 06:19:37 51°13.68 2°55.8 92.5 2.3 277 -999
2003-05-28 06:19:43 51°13.68 2°55.79 90.3 2.5 276 -999
2003-05-28 06:19:49 51°13.68 2°55.79 87.9 2.6 271 -999
2003-05-28 06:19:53 51°13.68 2°55.78 85.6 2.7 269 -999
2003-05-28 06:19:59 51°13.68 2°55.77 83.6 2.7 266 -999
2003-05-28 06:20:05 51°13.68 2°55.77 82 2.5 265 -999
2003-05-28 06:20:09 51°13.68 2°55.76 81 2.4 263 -999
2003-05-28 06:20:15 51°13.68 2°55.76 79.8 2 263 -999
2003-05-28 06:20:21 51°13.68 2°55.75 78.3 1.6 265 -999
2003-05-28 06:20:25 51°13.68 2°55.75 76.6 1.2 266 -999
2003-05-28 06:20:31 51°13.68 2°55.75 74.4 0.7 278 9.6
2003-05-28 06:20:35 51°13.68 2°55.75 72.1 0.4 310 10
2003-05-28 06:20:39 51°13.68 2°55.75 69.2 0.5 9 10.2
2003-05-28 06:20:43 51°13.68 2°55.75 64.4 0.8 30 10.4
2003-05-28 06:20:49 51°13.68 2°55.75 58.6 1.2 39 -999
2003-05-28 06:20:53 51°13.68 2°55.75 51.2 1.2 34 10.8
2003-05-28 06:20:57 51°13.69 2°55.76 47.1 1.1 32 -999
2003-05-28 06:21:03 51°13.69 2°55.76 44.7 0.8 28 5.4
2003-05-28 06:21:07 51°13.69 2°55.76 42.2 0.5 22 11
2003-05-28 06:21:11 51°13.69 2°55.76 40.6 0.2 330 11.1
2003-05-28 06:21:17 51°13.69 2°55.76 39.2 0.5 232 11
2003-05-28 06:21:21 51°13.69 2°55.75 38.4 0.9 229 11
2003-05-28 06:21:27 51°13.68 2°55.75 38 1.4 221 10.9
2003-05-28 06:21:31 51°13.68 2°55.75 37.4 1.6 223 10.8
2003-05-28 06:21:37 51°13.68 2°55.75 37 1.5 221 -999
2003-05-28 06:21:43 51°13.68 2°55.75 36.4 1.3 224 -999
2003-05-28 06:21:49 51°13.68 2°55.74 35.5 0.8 222 -999
2003-05-28 06:21:53 51°13.68 2°55.74 32.7 0.5 231 -999
2003-05-28 06:21:59 51°13.68 2°55.74 29.5 0.2 277 -999
2003-05-28 06:22:05 51°13.68 2°55.74 25.5 0.4 353 -999
2003-05-28 06:22:09 51°13.68 2°55.74 21 0.6 6 -999
2003-05-28 06:22:15 51°13.68 2°55.74 16.5 1 6 -999
2003-05-28 06:22:19 51°13.68 2°55.74 11.9 1.2 5 -999
2003-05-28 06:22:25 51°13.69 2°55.74 6.7 1.4 359 -999
2003-05-28 06:22:31 51°13.69 2°55.74 1.4 1.7 356 -999
2003-05-28 06:22:35 51°13.69 2°55.74 356 2 350 -999
2003-05-28 06:22:41 51°13.69 2°55.74 351.3 2.4 346 -999
2003-05-28 06:22:47 51°13.7 2°55.74 347.4 3 342 5
2003-05-28 06:22:51 51°13.7 2°55.74 344.5 3.4 340 10.9
2003-05-28 06:22:55 51°13.71 2°55.73 342.3 3.7 338 11
2003-05-28 06:22:59 51°13.71 2°55.73 340.4 4 337 10.5
2003-05-28 06:23:03 51°13.71 2°55.73 339.7 4.5 336 10.2
2003-05-28 06:23:09 51°13.72 2°55.72 339.6 4.8 335 9.9
2003-05-28 06:23:13 51°13.73 2°55.72 339.6 5.1 335 10
2003-05-28 06:23:17 51°13.73 2°55.71 339 5.3 334 9.3
2003-05-28 06:23:21 51°13.74 2°55.71 338.5 5.6 334 5
2003-05-28 06:23:27 51°13.75 2°55.7 338.2 5.9 334 5.6
2003-05-28 06:23:31 51°13.75 2°55.7 338.4 6 334 5.3
2003-05-28 06:23:37 51°13.76 2°55.69 338.2 6.2 333 5.2
2003-05-28 06:23:41 51°13.77 2°55.69 337.4 6.4 332 5.1
2003-05-28 06:23:47 51°13.78 2°55.68 337.3 6.5 332 9.9
2003-05-28 06:23:49 51°13.78 2°55.68 337.8 6.6 334 9.9
2003-05-28 06:23:57 51°13.79 2°55.67 338.4 6.8 335 9.9
2003-05-28 06:24:01 51°13.8 2°55.66 339.1 6.9 337 9.8
2003-05-28 06:24:07 51°13.81 2°55.65 339.7 7.1 336 9.7
2003-05-28 06:24:11 51°13.82 2°55.65 340.3 7.3 337 9.8
2003-05-28 06:24:17 51°13.83 2°55.64 340.7 7.4 337 4.9
2003-05-28 06:24:21 51°13.84 2°55.64 341.1 7.5 338 9.5
2003-05-28 06:24:25 51°13.85 2°55.63 340.7 7.6 338 9.3
2003-05-28 06:24:31 51°13.86 2°55.62 340.1 7.7 336 9.7
2003-05-28 06:24:37 51°13.87 2°55.61 339 7.7 334 9.8
2003-05-28 06:24:41 51°13.88 2°55.61 338.6 7.8 335 9.7
2003-05-28 06:24:45 51°13.88 2°55.6 339.1 7.8 335 10
2003-05-28 06:24:51 51°13.9 2°55.59 339.9 7.9 335 10.3
2003-05-28 06:24:57 51°13.91 2°55.58 339.9 7.9 335 10.2
2003-05-28 06:25:01 51°13.92 2°55.58 339.6 8 334 10.2
2003-05-28 06:25:05 51°13.92 2°55.57 339.5 8 334 10.2
2003-05-28 06:25:11 51°13.94 2°55.56 339.9 8.1 334 10.3
2003-05-28 06:25:17 51°13.95 2°55.55 341 8 335 10.3
2003-05-28 06:25:21 51°13.96 2°55.55 341.4 8 336 10.2
2003-05-28 06:25:25 51°13.96 2°55.54 341.1 8 336 10
2003-05-28 06:25:31 51°13.98 2°55.53 340.2 8 335 -999
2003-05-28 06:25:37 51°13.99 2°55.52 339.6 8 335 10.1
2003-05-28 06:25:41 51°14 2°55.52 339.9 8 336 9.9
2003-05-28 06:25:45 51°14 2°55.51 340.4 8 337 10
2003-05-28 06:25:49 51°14.01 2°55.51 340.4 8 336 9.9
2003-05-28 06:25:57 51°14.03 2°55.49 339.3 8.1 335 10.1
2003-05-28 06:26:01 51°14.04 2°55.49 338.2 8.1 334 10
2003-05-28 06:26:05 51°14.05 2°55.48 337.3 8 333 9.9
2003-05-28 06:26:15 51°14.06 2°55.46 335.3 8 330 9.8
2003-05-28 06:26:19 51°14.07 2°55.46 335.3 8 330 9.8
2003-05-28 06:26:25 51°14.08 2°55.45 335.6 8 331 9.9
2003-05-28 06:26:29 51°14.09 2°55.44 336.5 8 331 5
2003-05-28 06:26:33 51°14.1 2°55.43 336.9 8.1 332 10.3
2003-05-28 06:26:39 51°14.11 2°55.42 336.6 8.1 331 10.3
2003-05-28 06:26:45 51°14.12 2°55.41 336 8.1 331 10.4
2003-05-28 06:26:49 51°14.13 2°55.41 335.3 8.1 330 9.9
2003-05-28 06:26:55 51°14.14 2°55.39 335.1 8.1 330 10.1
2003-05-28 06:26:59 51°14.15 2°55.39 335.2 8 330 10.4
2003-05-28 06:27:05 51°14.16 2°55.38 335.3 8 331 10.2
2003-05-28 06:27:09 51°14.17 2°55.37 334.3 8.1 330 10.3
2003-05-28 06:27:15 51°14.18 2°55.36 332.6 8.1 329 10.3
2003-05-28 06:27:21 51°14.19 2°55.35 330.9 8.1 325 10.2
2003-05-28 06:27:25 51°14.2 2°55.34 330.2 8.1 326 10.4
2003-05-28 06:27:29 51°14.21 2°55.33 328.9 8 325 10.5
2003-05-28 06:27:35 51°14.22 2°55.32 327.3 8 323 10.5
2003-05-28 06:27:39 51°14.22 2°55.31 325.3 7.9 320 10.7
2003-05-28 06:27:45 51°14.24 2°55.29 323.2 7.9 319 10.3
2003-05-28 06:27:55 51°14.25 2°55.27 320.7 7.9 316 10.3
2003-05-28 06:27:59 51°14.26 2°55.26 319.6 7.9 314 10.1
2003-05-28 06:28:05 51°14.27 2°55.24 317.9 7.9 312 10
2003-05-28 06:28:09 51°14.27 2°55.23 316.2 7.9 311 10.1
2003-05-28 06:28:15 51°14.28 2°55.22 315.8 7.9 311 10
2003-05-28 06:28:19 51°14.29 2°55.21 315.7 7.9 310 10
2003-05-28 06:28:25 51°14.29 2°55.19 314.7 7.9 310 10.2
2003-05-28 06:28:29 51°14.3 2°55.18 313.5 7.9 309 10
2003-05-28 06:28:35 51°14.31 2°55.16 312.3 8 308 10.1
2003-05-28 06:28:39 51°14.31 2°55.15 311.2 8 307 10.2
2003-05-28 06:28:45 51°14.32 2°55.14 310.5 8 306 10.1
2003-05-28 06:28:49 51°14.33 2°55.12 309.9 8 306 9.7
2003-05-28 06:28:55 51°14.33 2°55.11 310 8 306 9.3
2003-05-28 06:28:59 51°14.34 2°55.1 310.1 8 306 9.1
2003-05-28 06:29:05 51°14.35 2°55.08 310 8 306 9.7
2003-05-28 06:29:09 51°14.35 2°55.07 309.8 8 305 9.5
2003-05-28 06:29:15 51°14.36 2°55.05 308.3 8.1 303 9.4
2003-05-28 06:29:19 51°14.36 2°55.04 305.6 8.3 300 9.2
2003-05-28 06:29:25 51°14.37 2°55.02 303.2 8.9 296 9.1
2003-05-28 06:29:29 51°14.38 2°55 300.4 9.2 294 9.1
2003-05-28 06:29:33 51°14.38 2°54.99 297.9 9.6 291 9
2003-05-28 06:29:41 51°14.39 2°54.95 294.6 10 286 9.2
2003-05-28 06:29:45 51°14.39 2°54.93 292 10.3 284 9.3
2003-05-28 06:29:49 51°14.39 2°54.92 289.2 10.6 281 9.3
2003-05-28 06:29:55 51°14.39 2°54.89 285.6 10.8 278 9.4
2003-05-28 06:29:59 51°14.39 2°54.87 281.8 11 276 9.3
2003-05-28 06:30:05 51°14.39 2°54.84 279.2 11.3 273 9.2
2003-05-28 06:30:09 51°14.4 2°54.82 278.9 11.5 274 9.2
2003-05-28 06:30:15 51°14.4 2°54.79 279.8 11.6 274 9.2
2003-05-28 06:30:21 51°14.4 2°54.76 279.7 11.8 274 9.2
2003-05-28 06:30:25 51°14.4 2°54.74 279.5 11.9 274 9.2
2003-05-28 06:30:29 51°14.4 2°54.71 280.2 12 275 9.2
2003-05-28 06:30:35 51°14.4 2°54.68 281 12.1 276 9.3
2003-05-28 06:30:39 51°14.4 2°54.66 280.8 12.3 275 9.4
2003-05-28 06:30:45 51°14.41 2°54.63 280.1 12.4 274 9.2
2003-05-28 06:30:49 51°14.41 2°54.61 280.1 12.5 274 9.4
2003-05-28 06:30:55 51°14.41 2°54.57 280.7 12.5 275 9.4
2003-05-28 06:30:59 51°14.41 2°54.55 280.4 12.5 274 9.4
2003-05-28 06:31:05 51°14.41 2°54.52 277.9 12.5 272 9.4
2003-05-28 06:31:09 51°14.41 2°54.5 273.9 12.5 268 9.1
2003-05-28 06:31:15 51°14.41 2°54.46 269.8 12.5 262 8.8
2003-05-28 06:31:19 51°14.4 2°54.44 264.4 12.5 258 8.4
2003-05-28 06:31:25 51°14.4 2°54.41 261 12.5 255 8.4
2003-05-28 06:31:29 51°14.4 2°54.39 259.6 12.5 255 8.3
2003-05-28 06:31:35 51°14.39 2°54.36 259 12.6 254 8.3
2003-05-28 06:31:39 51°14.39 2°54.33 258.7 12.6 254 8.3
2003-05-28 06:31:45 51°14.38 2°54.3 257.5 12.6 252 8.2
2003-05-28 06:31:49 51°14.37 2°54.28 255.5 12.7 250 8.2
2003-05-28 06:31:55 51°14.37 2°54.25 252.3 12.7 247 8.1
2003-05-28 06:31:59 51°14.36 2°54.23 249.9 12.8 245 8.1
2003-05-28 06:32:05 51°14.35 2°54.2 248.2 12.8 244 8.1
2003-05-28 06:32:09 51°14.34 2°54.18 247.2 12.8 243 8.1
2003-05-28 06:32:13 51°14.34 2°54.16 246.4 13 243 8.1
2003-05-28 06:32:39 51°14.29 2°54.02 245.3 13.5 242 8.1
2003-05-28 06:32:45 51°14.28 2°53.99 245.3 13.7 242 8
2003-05-28 06:32:49 51°14.28 2°53.97 245.8 13.8 242 8.1
2003-05-28 06:32:53 51°14.27 2°53.95 246.1 13.8 243 8
2003-05-28 06:32:59 51°14.26 2°53.92 246.7 13.9 243 8
2003-05-28 06:33:03 51°14.25 2°53.89 246.7 14 243 8
2003-05-28 06:33:09 51°14.24 2°53.86 246.9 14 243 8
2003-05-28 06:33:13 51°14.23 2°53.84 247.5 14.1 244 8
2003-05-28 06:33:17 51°14.23 2°53.82 247.5 14.1 243 8
2003-05-28 06:33:39 51°14.19 2°53.69 245.7 14.3 241 8.1
2003-05-28 06:33:43 51°14.18 2°53.67 245.5 14.3 241 8
2003-05-28 06:33:49 51°14.17 2°53.64 245.1 14.3 241 8.1
2003-05-28 06:33:53 51°14.16 2°53.62 244.6 14.4 241 8.1
2003-05-28 06:33:59 51°14.15 2°53.58 244.2 14.4 241 8.1
2003-05-28 06:34:05 51°14.14 2°53.55 244.2 14.4 240 8.1
2003-05-28 06:34:13 51°14.12 2°53.5 245.3 14.5 242 8.2
2003-05-28 06:34:21 51°14.11 2°53.46 246.2 14.5 243 8.2
2003-05-28 06:34:25 51°14.1 2°53.44 247.5 14.5 244 8.3
2003-05-28 06:34:29 51°14.09 2°53.41 248.5 14.5 245 8.3
2003-05-28 06:34:35 51°14.08 2°53.38 249.3 14.5 246 8.3
2003-05-28 06:34:39 51°14.07 2°53.35 249.8 14.6 246 8.4
2003-05-28 06:34:45 51°14.06 2°53.32 250 14.6 245 8.5
2003-05-28 06:34:55 51°14.05 2°53.26 247.1 14.6 242 8.5
2003-05-28 06:34:59 51°14.04 2°53.24 245.4 14.6 241 8.6
2003-05-28 06:35:05 51°14.03 2°53.21 244.2 14.6 239 8.6
2003-05-28 06:35:09 51°14.02 2°53.18 243 14.7 239 8.6
2003-05-28 06:35:13 51°14.01 2°53.16 242 14.7 238 8.7
2003-05-28 06:35:17 51°14 2°53.14 241.6 14.7 238 8.7
2003-05-28 06:35:25 51°13.98 2°53.1 241.5 14.7 238 8.8
2003-05-28 06:35:29 51°13.97 2°53.07 242 14.8 239 8.8
2003-05-28 06:35:35 51°13.96 2°53.04 242.9 14.8 239 8.8
2003-05-28 06:35:39 51°13.95 2°53.02 243.5 14.8 240 8.8
2003-05-28 06:35:45 51°13.94 2°52.98 244.7 14.8 241 8.9
2003-05-28 06:35:49 51°13.93 2°52.96 245.1 14.8 241 8.9
2003-05-28 06:35:53 51°13.93 2°52.94 245.4 14.8 242 8.9
2003-05-28 06:36:01 51°13.91 2°52.89 245.5 14.8 241 9
2003-05-28 06:36:05 51°13.9 2°52.87 245.2 14.9 241 9
2003-05-28 06:36:09 51°13.89 2°52.84 244.9 14.9 241 9
2003-05-28 06:36:15 51°13.88 2°52.81 244.3 14.9 240 9
2003-05-28 06:36:19 51°13.87 2°52.79 243.5 14.9 239 9.1
2003-05-28 06:36:25 51°13.86 2°52.75 242.8 14.9 239 9
2003-05-28 06:36:35 51°13.84 2°52.7 242.2 14.8 238 9.1
2003-05-28 06:36:39 51°13.83 2°52.68 242.3 14.9 239 9.1
2003-05-28 06:36:45 51°13.82 2°52.64 242.7 14.8 239 9.1
2003-05-28 06:36:49 51°13.81 2°52.62 243.1 14.8 239 9.1
2003-05-28 06:36:53 51°13.8 2°52.6 243.8 14.9 240 9.1
2003-05-28 06:36:57 51°13.79 2°52.57 244.7 14.8 241 9.1
2003-05-28 06:37:05 51°13.78 2°52.53 245 14.8 241 9.2
2003-05-28 06:37:09 51°13.77 2°52.51 245.1 14.9 241 9.2
2003-05-28 06:37:15 51°13.76 2°52.47 245.3 14.8 241 9.2
2003-05-28 06:37:17 51°13.75 2°52.46 245 14.9 240 9.3
2003-05-28 06:37:25 51°13.74 2°52.41 244.6 14.9 240 9.3
2003-05-28 06:37:29 51°13.73 2°52.39 244.4 14.9 240 9.3
2003-05-28 06:37:35 51°13.71 2°52.36 243.9 14.9 240 9.3
2003-05-28 06:37:39 51°13.71 2°52.33 243.5 14.9 239 9.3
2003-05-28 06:37:45 51°13.69 2°52.3 243 14.9 239 9.3
2003-05-28 06:37:49 51°13.68 2°52.28 242.8 14.9 239 9.3
2003-05-28 06:37:55 51°13.67 2°52.24 242.9 14.9 239 9.3
2003-05-28 06:37:59 51°13.66 2°52.22 243.4 14.9 240 9.4
2003-05-28 06:38:05 51°13.65 2°52.19 244 14.9 240 9.4
2003-05-28 06:38:09 51°13.64 2°52.16 244.4 14.9 240 9.4
2003-05-28 06:38:15 51°13.63 2°52.13 244.6 14.9 241 9.3
2003-05-28 06:38:19 51°13.62 2°52.11 244.7 14.9 240 9.3
2003-05-28 06:38:25 51°13.61 2°52.07 244.7 14.9 241 9.3
2003-05-28 06:38:29 51°13.6 2°52.05 244.5 14.9 240 9.3
2003-05-28 06:38:33 51°13.59 2°52.03 244.2 14.9 240 9.4
2003-05-28 06:38:39 51°13.58 2°51.99 243.8 14.9 239 9.3
2003-05-28 06:38:45 51°13.57 2°51.96 243.8 14.9 240 9.4
2003-05-28 06:38:49 51°13.56 2°51.94 244.2 14.9 240 9.4
2003-05-28 06:38:55 51°13.55 2°51.9 244.2 14.9 240 9.4
2003-05-28 06:38:59 51°13.54 2°51.88 244.3 14.9 240 9.4
2003-05-28 06:39:05 51°13.53 2°51.84 244.4 14.9 240 9.4
2003-05-28 06:39:09 51°13.52 2°51.82 244.3 14.9 240 9.4
2003-05-28 06:39:15 51°13.51 2°51.79 244.3 14.9 240 9.4
2003-05-28 06:39:19 51°13.5 2°51.76 244.2 14.9 240 9.5
2003-05-28 06:39:25 51°13.49 2°51.73 244 14.9 240 9.5
2003-05-28 06:39:29 51°13.48 2°51.71 243.9 14.9 240 9.5
2003-05-28 06:39:35 51°13.47 2°51.67 243.9 14.9 240 9.5
2003-05-28 06:39:39 51°13.46 2°51.65 244.1 14.9 240 9.5
2003-05-28 06:39:45 51°13.45 2°51.62 244.5 14.9 241 9.5
2003-05-28 06:39:49 51°13.44 2°51.59 244.6 14.9 241 9.6
2003-05-28 06:39:55 51°13.43 2°51.56 244.8 14.9 241 9.5
2003-05-28 06:39:59 51°13.42 2°51.54 244.8 14.9 241 9.6
2003-05-28 06:40:05 51°13.41 2°51.5 244.8 14.9 241 9.6
2003-05-28 06:40:09 51°13.4 2°51.48 244.6 14.9 240 9.6
2003-05-28 06:40:15 51°13.38 2°51.44 244.1 14.9 240 9.5
2003-05-28 06:40:19 51°13.38 2°51.42 243.9 14.9 240 9.5
2003-05-28 06:40:25 51°13.36 2°51.39 243.9 14.9 240 9.6
2003-05-28 06:40:29 51°13.36 2°51.36 243.7 14.9 240 9.6
2003-05-28 06:40:33 51°13.35 2°51.34 243.7 14.9 240 9.6
2003-05-28 06:40:41 51°13.33 2°51.3 243.7 14.9 240 9.6
2003-05-28 06:40:45 51°13.32 2°51.27 244.2 14.9 241 9.6
2003-05-28 06:40:49 51°13.31 2°51.25 244.5 14.9 241 9.6
2003-05-28 06:40:55 51°13.3 2°51.22 244.5 14.9 241 9.6
2003-05-28 06:40:59 51°13.29 2°51.19 244.6 14.9 241 9.7
2003-05-28 06:41:05 51°13.28 2°51.16 244.7 14.9 241 9.7
2003-05-28 06:41:09 51°13.27 2°51.13 244.5 14.9 241 9.7
2003-05-28 06:41:15 51°13.26 2°51.1 244.3 15 240 9.7
2003-05-28 06:41:19 51°13.25 2°51.08 244.1 14.9 240 9.8
2003-05-28 06:41:25 51°13.24 2°51.04 244.1 14.9 241 9.7
2003-05-28 06:41:29 51°13.23 2°51.02 244.3 14.9 241 9.7
2003-05-28 06:41:35 51°13.22 2°50.99 244.5 14.9 241 9.8
2003-05-28 06:41:39 51°13.21 2°50.96 244.4 15 241 9.8
2003-05-28 06:41:45 51°13.2 2°50.93 244.2 15 240 9.8
2003-05-28 06:41:49 51°13.19 2°50.9 244 15 240 9.8
2003-05-28 06:41:55 51°13.18 2°50.87 244.3 15 241 9.8
2003-05-28 06:41:59 51°13.17 2°50.85 244.4 15 241 9.9
2003-05-28 06:42:05 51°13.16 2°50.81 244.6 15 241 9.9
2003-05-28 06:42:09 51°13.15 2°50.79 244.7 15 241 9.9
2003-05-28 06:42:15 51°13.14 2°50.75 244.2 15.1 241 9.9
2003-05-28 06:42:21 51°13.13 2°50.72 244.3 15.1 241 9.9
2003-05-28 06:42:25 51°13.12 2°50.7 244.4 15.1 240 10
2003-05-28 06:42:29 51°13.11 2°50.67 244.1 15.1 240 10
2003-05-28 06:42:35 51°13.1 2°50.64 243.7 15.1 240 10
2003-05-28 06:42:39 51°13.09 2°50.61 244.2 15.1 241 10
2003-05-28 06:42:45 51°13.08 2°50.58 244.2 15.1 240 10
2003-05-28 06:42:55 51°13.06 2°50.52 244.1 15.1 240 10
2003-05-28 06:42:59 51°13.05 2°50.5 243.8 15.2 240 10
2003-05-28 06:43:05 51°13.04 2°50.46 244.2 15.1 241 10
2003-05-28 06:43:09 51°13.03 2°50.44 244.2 15.1 240 10
2003-05-28 06:43:13 51°13.02 2°50.42 244.3 15.1 240 10
2003-05-28 06:43:39 51°12.97 2°50.27 244.1 15.1 241 10.1
2003-05-28 06:43:45 51°12.95 2°50.23 243.9 15 240 10.1
2003-05-28 06:43:49 51°12.95 2°50.21 243.7 15.1 240 10.1
2003-05-28 06:43:53 51°12.94 2°50.19 243.8 15.1 240 10.2
2003-05-28 06:43:57 51°12.93 2°50.16 243.9 15.1 240 10.1
2003-05-28 06:44:05 51°12.91 2°50.12 244.4 15.1 241 10.2
2003-05-28 06:44:09 51°12.91 2°50.09 244.4 15.1 241 10.2
2003-05-28 06:44:13 51°12.9 2°50.07 244.4 15.1 241 10.2
2003-05-28 06:44:17 51°12.89 2°50.05 244.4 15.1 241 10.2
2003-05-28 06:44:25 51°12.87 2°50 244.4 15 240 10.2
2003-05-28 06:44:29 51°12.86 2°49.98 244 15 241 10.2
2003-05-28 06:44:33 51°12.86 2°49.95 243.9 15 240 10.2
2003-05-28 06:44:39 51°12.84 2°49.92 244.5 15 242 10.2
2003-05-28 06:44:41 51°12.84 2°49.91 244.5 15 241 10.2
2003-05-28 06:44:49 51°12.82 2°49.86 244.5 15 241 10.3
2003-05-28 06:44:53 51°12.82 2°49.84 244.1 15 240 10.2
2003-05-28 06:44:59 51°12.8 2°49.8 244.1 15 241 10.2
2003-05-28 06:45:05 51°12.79 2°49.77 244 15 240 10.3
2003-05-28 06:45:09 51°12.78 2°49.75 243.9 15 240 10.3
2003-05-28 06:45:13 51°12.77 2°49.72 244.3 15 241 10.4
2003-05-28 06:45:17 51°12.77 2°49.7 244.3 15 241 10.3
2003-05-28 06:45:23 51°12.75 2°49.66 244.5 15 241 10.3
2003-05-28 06:45:29 51°12.74 2°49.63 244.6 15 241 10.3
2003-05-28 06:45:33 51°12.73 2°49.61 244.6 15 241 10.3
2003-05-28 06:45:39 51°12.72 2°49.57 244.5 15 241 10.3
2003-05-28 06:45:45 51°12.71 2°49.54 244.3 15 240 10.4
2003-05-28 06:45:49 51°12.7 2°49.51 244 15 240 10.4
2003-05-28 06:45:53 51°12.69 2°49.49 243.9 15 241 10.4
2003-05-28 06:45:59 51°12.68 2°49.46 244.2 15 241 10.4
2003-05-28 06:46:05 51°12.67 2°49.42 244.4 15 241 10.4
2003-05-28 06:46:09 51°12.66 2°49.4 244.5 15 241 10.4
2003-05-28 06:46:13 51°12.65 2°49.38 244.5 15 241 10.4
2003-05-28 06:46:19 51°12.64 2°49.34 244.5 14.9 241 10.4
2003-05-28 06:46:25 51°12.63 2°49.31 244.1 14.9 240 10.4
2003-05-28 06:46:29 51°12.62 2°49.28 243.8 14.9 240 10.4
2003-05-28 06:46:33 51°12.61 2°49.26 243.5 14.9 240 10.5
2003-05-28 06:46:39 51°12.6 2°49.23 243.3 15 240 10.5
2003-05-28 06:46:45 51°12.59 2°49.19 243.7 14.9 240 10.5
2003-05-28 06:46:49 51°12.58 2°49.17 243.8 15 241 10.5
2003-05-28 06:46:53 51°12.57 2°49.15 244.2 15 240 10.5
2003-05-28 06:46:59 51°12.56 2°49.11 244.1 15 241 10.6
2003-05-28 06:47:03 51°12.55 2°49.09 244.1 15 241 10.5
2003-05-28 06:47:09 51°12.54 2°49.05 244.4 15 241 10.5
2003-05-28 06:47:13 51°12.53 2°49.03 244.6 15 241 10.5
2003-05-28 06:47:19 51°12.52 2°49 244.6 15 241 10.5
2003-05-28 06:47:25 51°12.5 2°48.96 244.4 15 241 10.5
2003-05-28 06:47:29 51°12.5 2°48.94 244.2 15 241 10.5
2003-05-28 06:47:33 51°12.49 2°48.91 244.1 15 240 10.5
2003-05-28 06:47:39 51°12.48 2°48.88 244.1 15 241 10.5
2003-05-28 06:47:41 51°12.47 2°48.87 244.5 15 242 10.5
2003-05-28 06:47:49 51°12.46 2°48.82 244.6 15 241 10.5
2003-05-28 06:47:53 51°12.45 2°48.8 244.2 15 241 10.4
2003-05-28 06:47:59 51°12.44 2°48.76 244.3 15 241 10.6
2003-05-28 06:48:05 51°12.42 2°48.73 244.1 15 241 10.6
2003-05-28 06:48:15 51°12.4 2°48.67 244.4 15.1 241 10.6
2003-05-28 06:48:19 51°12.4 2°48.65 244.4 15 241 10.6
2003-05-28 06:48:25 51°12.38 2°48.61 244.1 15 240 10.7
2003-05-28 06:48:29 51°12.37 2°48.59 244.1 15 241 10.6
2003-05-28 06:48:33 51°12.37 2°48.57 244.1 15 240 10.6
2003-05-28 06:48:41 51°12.35 2°48.52 244.4 15 241 10.5
2003-05-28 06:48:45 51°12.34 2°48.5 244.5 15 241 10.7
2003-05-28 06:48:49 51°12.33 2°48.47 244.7 15 241 10.6
2003-05-28 06:48:55 51°12.32 2°48.44 244.8 15 241 10.6
2003-05-28 06:48:59 51°12.31 2°48.42 244.9 15 241 10.7
2003-05-28 06:49:05 51°12.3 2°48.38 244.9 15 241 10.7
2003-05-28 06:49:09 51°12.29 2°48.36 245 15 242 10.7
2003-05-28 06:49:15 51°12.28 2°48.32 244.8 15 241 10.7
2003-05-28 06:49:19 51°12.27 2°48.3 244.7 15 241 10.7
2003-05-28 06:49:25 51°12.26 2°48.27 244.6 15 241 10.7
2003-05-28 06:49:29 51°12.25 2°48.24 244.5 15 241 10.6
2003-05-28 06:49:35 51°12.24 2°48.21 244.4 15 241 10.7
2003-05-28 06:49:39 51°12.23 2°48.19 244.4 15 241 10.7
2003-05-28 06:49:45 51°12.22 2°48.15 244.3 15 241 10.7
2003-05-28 06:49:49 51°12.21 2°48.13 244 15 240 10.7
2003-05-28 06:49:55 51°12.2 2°48.09 244.1 15 241 10.7
2003-05-28 06:49:59 51°12.19 2°48.07 244.1 15 241 10.8
2003-05-28 06:50:05 51°12.18 2°48.03 244.3 14.9 241 10.8
2003-05-28 06:50:09 51°12.17 2°48.01 244.3 15 240 10.8
2003-05-28 06:50:15 51°12.16 2°47.98 244.4 14.9 241 10.7
2003-05-28 06:50:21 51°12.15 2°47.94 244.4 14.9 241 10.7
2003-05-28 06:50:25 51°12.14 2°47.92 244.3 14.9 241 10.8
2003-05-28 06:50:29 51°12.13 2°47.9 244.1 14.9 240 10.8
2003-05-28 06:50:35 51°12.12 2°47.86 243.9 14.9 240 10.7
2003-05-28 06:50:39 51°12.11 2°47.84 243.8 15 240 10.8
2003-05-28 06:50:45 51°12.1 2°47.81 244.2 14.9 240 10.7
2003-05-28 06:50:49 51°12.09 2°47.78 243.8 15 240 10.7
2003-05-28 06:50:55 51°12.08 2°47.75 244.1 15 240 10.7
2003-05-28 06:50:59 51°12.07 2°47.72 244.5 14.9 241 10.7
2003-05-28 06:51:05 51°12.06 2°47.69 244.6 15 241 10.7
2003-05-28 06:51:09 51°12.05 2°47.67 245.1 15 241 10.7
2003-05-28 06:51:13 51°12.04 2°47.64 246 15 243 10.7
2003-05-28 06:51:39 51°12 2°47.49 249 15 245 10.8
2003-05-28 06:51:41 51°11.99 2°47.48 249 15 245 10.8
2003-05-28 06:51:49 51°11.98 2°47.43 248.9 15 245 10.8
2003-05-28 06:51:53 51°11.97 2°47.4 248.8 15 245 10.8
2003-05-28 06:51:57 51°11.96 2°47.38 248.7 15 245 10.8
2003-05-28 06:52:17 51°11.93 2°47.26 249 15 245 10.8
2003-05-28 06:52:25 51°11.91 2°47.21 248.6 15 244 10.8
2003-05-28 06:52:29 51°11.91 2°47.19 248.2 15 244 10.7
2003-05-28 06:52:33 51°11.9 2°47.17 248.2 15 244 10.7
2003-05-28 06:52:39 51°11.89 2°47.13 248.4 15 245 10.7
2003-05-28 06:52:45 51°11.88 2°47.09 248.4 14.9 244 10.8
2003-05-28 06:52:49 51°11.87 2°47.07 248.5 15 245 10.7
2003-05-28 06:52:53 51°11.86 2°47.05 248.5 14.9 244 10.8
2003-05-28 06:52:59 51°11.85 2°47.01 248.2 15 244 10.7
2003-05-28 06:53:05 51°11.84 2°46.97 248.1 15 244 10.8
2003-05-28 06:53:09 51°11.84 2°46.95 248.2 15 245 10.8
2003-05-28 06:53:13 51°11.83 2°46.93 248.4 15 245 10.8
2003-05-28 06:53:17 51°11.82 2°46.9 248.6 15 245 10.8
2003-05-28 06:53:23 51°11.81 2°46.87 248.8 15 245 10.8
2003-05-28 06:53:29 51°11.8 2°46.83 248.9 15 245 10.9
2003-05-28 06:53:33 51°11.79 2°46.81 249 15 245 10.9
2003-05-28 06:53:39 51°11.78 2°46.77 249 15 246 10.9
2003-05-28 06:53:45 51°11.77 2°46.74 249.2 15 245 11
2003-05-28 06:53:49 51°11.77 2°46.71 250.3 15 247 11
2003-05-28 06:53:53 51°11.76 2°46.69 251.1 15 247 11
2003-05-28 06:53:59 51°11.75 2°46.65 251.8 15 248 11
2003-05-28 06:54:05 51°11.74 2°46.61 252.4 15 248 11.1
2003-05-28 06:54:09 51°11.73 2°46.59 252.6 15 249 11.1
2003-05-28 06:54:13 51°11.73 2°46.56 252.8 15 248 11.1
2003-05-28 06:54:19 51°11.72 2°46.53 252.7 15 248 11.1
2003-05-28 06:54:25 51°11.71 2°46.49 252.5 15 248 11.1
2003-05-28 06:54:29 51°11.7 2°46.46 252.3 15 248 11.1
2003-05-28 06:54:33 51°11.7 2°46.44 252.1 15 248 11.1
2003-05-28 06:54:39 51°11.69 2°46.4 252.1 15 248 11.1
2003-05-28 06:54:41 51°11.68 2°46.39 252.5 15 249 11.1
2003-05-28 06:54:49 51°11.67 2°46.34 252.6 15 248 11.2
2003-05-28 06:54:53 51°11.67 2°46.32 252.4 15 248 11.1
2003-05-28 06:54:59 51°11.66 2°46.28 252.4 15.1 248 11.2
2003-05-28 06:55:03 51°11.65 2°46.26 252.5 15.1 248 11.2
2003-05-28 06:55:09 51°11.64 2°46.22 252.5 15 249 11.2
2003-05-28 06:55:13 51°11.64 2°46.19 252.6 15 248 11.2
2003-05-28 06:55:19 51°11.63 2°46.16 252.5 15.1 249 11.1
2003-05-28 06:55:25 51°11.62 2°46.12 252.5 15.1 248 11.2
2003-05-28 06:55:29 51°11.61 2°46.1 252.5 15 248 11.2
2003-05-28 06:55:33 51°11.61 2°46.07 252.6 15 248 11.2
2003-05-28 06:55:39 51°11.6 2°46.03 252.6 15 248 11.2
2003-05-28 06:55:41 51°11.59 2°46.02 252.6 15 248 11.1
2003-05-28 06:55:49 51°11.58 2°45.97 252.4 15.1 248 11.1
2003-05-28 06:55:53 51°11.57 2°45.95 252.3 15.1 248 11.1
2003-05-28 06:55:59 51°11.57 2°45.91 252.2 15.1 248 11.1
2003-05-28 06:56:05 51°11.56 2°45.87 252.4 15 248 11.1
2003-05-28 06:56:15 51°11.54 2°45.81 252.7 15.1 249 11.1
2003-05-28 06:56:19 51°11.53 2°45.79 252.5 15 248 11.1
2003-05-28 06:56:25 51°11.52 2°45.75 252.1 15 248 11.1
2003-05-28 06:56:29 51°11.52 2°45.73 252.1 15 248 11.1
2003-05-28 06:56:33 51°11.51 2°45.7 252.4 15 249 11.1
2003-05-28 06:56:39 51°11.5 2°45.66 252.2 15.1 248 11.1
2003-05-28 06:56:45 51°11.49 2°45.63 252.1 15.1 248 11.1
2003-05-28 06:56:49 51°11.49 2°45.6 252.1 15.1 248 11.1
2003-05-28 06:56:55 51°11.48 2°45.57 252.3 15 248 11.1
2003-05-28 06:56:59 51°11.47 2°45.54 252.5 15.1 248 11.1
2003-05-28 06:57:05 51°11.46 2°45.5 252.6 15.1 249 11.1
2003-05-28 06:57:09 51°11.46 2°45.48 252.7 15.1 249 11.1
2003-05-28 06:57:15 51°11.45 2°45.44 252.5 15.1 248 11.1
2003-05-28 06:57:19 51°11.44 2°45.42 252.3 15.1 248 11.1
2003-05-28 06:57:25 51°11.43 2°45.38 252.1 15 248 11.1
2003-05-28 06:57:29 51°11.43 2°45.35 253 15.1 249 11
2003-05-28 06:57:33 51°11.42 2°45.33 254.5 15.1 251 11.1
2003-05-28 06:57:39 51°11.41 2°45.29 255.5 15.1 251 11.1
2003-05-28 06:57:45 51°11.4 2°45.25 256.1 15.1 252 11.1
2003-05-28 06:57:49 51°11.4 2°45.23 256.8 15.1 252 11.1
2003-05-28 06:57:55 51°11.39 2°45.19 257.1 15.1 252 11.1
2003-05-28 06:57:59 51°11.39 2°45.16 257.2 15.1 253 11.1
2003-05-28 06:58:05 51°11.38 2°45.12 257.1 15.1 252 11.1
2003-05-28 06:58:09 51°11.37 2°45.1 256.9 15.1 252 11.2
2003-05-28 06:58:15 51°11.37 2°45.06 257 15.1 252 11.1
2003-05-28 06:58:19 51°11.36 2°45.04 256.9 15 252 11.2
2003-05-28 06:58:25 51°11.35 2°45 256.7 15 252 11.1
2003-05-28 06:58:29 51°11.35 2°44.97 256.7 15.1 252 11.2
2003-05-28 06:58:33 51°11.34 2°44.95 256.7 15 252 11.2
2003-05-28 06:58:39 51°11.34 2°44.91 256.8 15 252 11.3
2003-05-28 06:58:45 51°11.33 2°44.87 256.9 15 253 11.2
2003-05-28 06:58:49 51°11.32 2°44.85 256.7 15 252 11.2
2003-05-28 06:58:55 51°11.32 2°44.81 256.4 15 252 11.2
2003-05-28 06:58:59 51°11.31 2°44.79 256.2 15 252 11.3
2003-05-28 06:59:05 51°11.3 2°44.75 256.5 15 253 11.3
2003-05-28 06:59:15 51°11.29 2°44.68 256.7 15 252 11.2
2003-05-28 06:59:19 51°11.29 2°44.66 256.3 15 252 11.3
2003-05-28 06:59:25 51°11.28 2°44.62 256.2 15 252 11.2
2003-05-28 06:59:29 51°11.27 2°44.59 256.2 15 252 11.3
2003-05-28 06:59:33 51°11.27 2°44.57 256.8 15.1 253 11.2
2003-05-28 06:59:39 51°11.26 2°44.53 256.9 15.1 253 11.3
2003-05-28 06:59:45 51°11.25 2°44.49 257.4 15 254 11.3
2003-05-28 06:59:49 51°11.25 2°44.47 257.7 15 253 11.3
2003-05-28 06:59:55 51°11.24 2°44.43 258.4 15.1 255 11.3
2003-05-28 06:59:59 51°11.24 2°44.4 259 15.1 255 11.3
2003-05-28 07:00:05 51°11.23 2°44.37 259.1 15.1 255 11.3
2003-05-28 07:00:15 51°11.22 2°44.3 258.8 15.1 254 11.4
2003-05-28 07:00:21 51°11.21 2°44.26 258.6 15.1 254 11.3
2003-05-28 07:00:25 51°11.21 2°44.24 258.3 15.1 254 11.4
2003-05-28 07:00:29 51°11.2 2°44.21 258.3 15 254 11.4
2003-05-28 07:00:35 51°11.2 2°44.18 258.4 15.1 254 11.4
2003-05-28 07:00:41 51°11.19 2°44.14 258.9 15 254 11.4
2003-05-28 07:00:45 51°11.18 2°44.11 258.8 15 254 11.4
2003-05-28 07:00:55 51°11.17 2°44.05 258.2 15 254 11.4
2003-05-28 07:01:01 51°11.17 2°44.01 258.1 15 254 11.5
2003-05-28 07:01:05 51°11.16 2°43.98 258.2 15 254 11.4
2003-05-28 07:01:09 51°11.16 2°43.96 258.3 14.9 254 11.5
2003-05-28 07:01:15 51°11.15 2°43.92 258.4 14.9 254 11.5
2003-05-28 07:01:21 51°11.14 2°43.88 259 15 255 11.5
2003-05-28 07:01:25 51°11.14 2°43.86 259.1 14.9 254 11.5
2003-05-28 07:01:35 51°11.13 2°43.8 258.3 14.9 254 11.5
2003-05-28 07:01:39 51°11.12 2°43.77 258.1 14.9 253 11.6
2003-05-28 07:01:45 51°11.12 2°43.73 258.1 14.9 254 11.5
2003-05-28 07:01:49 51°11.11 2°43.71 258.3 14.9 254 11.5
2003-05-28 07:01:55 51°11.11 2°43.67 258.3 14.9 254 11.5
2003-05-28 07:02:01 51°11.1 2°43.63 258.3 14.9 254 11.5
2003-05-28 07:02:05 51°11.09 2°43.61 258.1 14.9 254 11.5
2003-05-28 07:02:09 51°11.09 2°43.58 258.1 14.9 254 11.5
2003-05-28 07:02:15 51°11.08 2°43.54 258.2 14.9 254 11.5
2003-05-28 07:02:21 51°11.08 2°43.5 258.3 14.9 254 11.5
2003-05-28 07:02:25 51°11.07 2°43.48 258.3 14.9 254 11.5
2003-05-28 07:02:35 51°11.06 2°43.42 258 14.9 254 11.5
2003-05-28 07:02:41 51°11.05 2°43.38 258.4 14.9 254 11.5
2003-05-28 07:02:45 51°11.05 2°43.35 258.6 14.9 254 11.5
2003-05-28 07:02:49 51°11.04 2°43.33 258.6 14.9 254 11.6
2003-05-28 07:02:53 51°11.04 2°43.3 258.4 14.9 254 11.6
2003-05-28 07:03:11 51°11.02 2°43.19 258.2 14.9 254 11.5
2003-05-28 07:03:17 51°11.01 2°43.15 258.3 14.9 254 11.6
2003-05-28 07:03:21 51°11.01 2°43.12 258.3 14.9 254 11.6
2003-05-28 07:03:25 51°11 2°43.1 258.3 14.9 254 11.6
2003-05-28 07:03:31 51°11 2°43.06 258.3 14.9 254 11.6
2003-05-28 07:03:37 51°10.99 2°43.02 258.6 14.9 254 11.5
2003-05-28 07:03:41 51°10.98 2°43 258.6 14.9 254 11.6
2003-05-28 07:03:45 51°10.98 2°42.97 258.7 14.9 255 11.6
2003-05-28 07:03:49 51°10.97 2°42.95 258.3 14.9 254 11.6
2003-05-28 07:03:57 51°10.97 2°42.9 258.1 14.9 253 11.7
2003-05-28 07:04:01 51°10.96 2°42.87 258.2 14.9 254 11.6
2003-05-28 07:04:05 51°10.96 2°42.85 258.4 14.9 254 11.7
2003-05-28 07:04:09 51°10.95 2°42.82 258.4 14.9 254 11.7
2003-05-28 07:04:17 51°10.94 2°42.77 258.4 14.9 254 11.7
2003-05-28 07:04:21 51°10.94 2°42.74 258.3 14.9 254 11.4
2003-05-28 07:04:25 51°10.93 2°42.72 258.1 14.9 253 11.6
2003-05-28 07:04:29 51°10.93 2°42.69 258.2 14.9 254 11.7
2003-05-28 07:04:37 51°10.92 2°42.64 258.2 14.9 254 11.7
2003-05-28 07:04:41 51°10.92 2°42.62 258.5 14.9 254 11.6
2003-05-28 07:04:45 51°10.91 2°42.59 258.3 14.9 254 11.6
2003-05-28 07:04:55 51°10.9 2°42.53 258.2 14.9 254 11.6
2003-05-28 07:05:01 51°10.89 2°42.49 258.3 14.8 254 11.6
2003-05-28 07:05:05 51°10.89 2°42.47 258.7 14.8 255 11.7
2003-05-28 07:05:09 51°10.88 2°42.44 258.7 14.9 254 11.6
2003-05-28 07:05:15 51°10.88 2°42.4 258.4 14.9 254 11.7
2003-05-28 07:05:21 51°10.87 2°42.37 258.2 14.8 254 11.7
2003-05-28 07:05:25 51°10.86 2°42.34 257.9 14.9 253 11.7
2003-05-28 07:05:35 51°10.85 2°42.28 258.3 14.8 254 11.6
2003-05-28 07:05:41 51°10.85 2°42.24 259.4 14.8 256 11.6
2003-05-28 07:05:45 51°10.84 2°42.21 259.8 14.8 255 11.8
2003-05-28 07:05:49 51°10.84 2°42.19 260.3 14.8 256 11.7
2003-05-28 07:05:55 51°10.83 2°42.15 260.8 14.8 256 11.7
2003-05-28 07:06:01 51°10.83 2°42.11 260.8 14.8 256 11.7
2003-05-28 07:06:05 51°10.82 2°42.09 260.6 14.8 256 11.7
2003-05-28 07:06:15 51°10.81 2°42.02 260 14.8 256 11.8
2003-05-28 07:06:21 51°10.81 2°41.99 260.3 14.8 256 11.7
2003-05-28 07:06:25 51°10.8 2°41.96 260.5 14.8 256 11.7
2003-05-28 07:06:35 51°10.79 2°41.9 260.2 14.7 256 11.8
2003-05-28 07:06:41 51°10.79 2°41.86 260.3 14.7 256 11.8
2003-05-28 07:06:45 51°10.78 2°41.84 260.5 14.7 256 11.8
2003-05-28 07:06:49 51°10.78 2°41.81 260.5 14.7 256 11.7
2003-05-28 07:06:53 51°10.78 2°41.79 260.4 14.7 256 11.8
2003-05-28 07:07:11 51°10.76 2°41.67 260.6 14.7 256 11.8
2003-05-28 07:07:17 51°10.75 2°41.63 260.6 14.7 256 11.8
2003-05-28 07:07:21 51°10.75 2°41.61 260.4 14.7 256 11.8
2003-05-28 07:07:25 51°10.74 2°41.58 260.4 14.7 256 11.8
2003-05-28 07:07:31 51°10.74 2°41.55 260.4 14.7 256 11.8
2003-05-28 07:07:37 51°10.73 2°41.51 260.4 14.7 256 11.9
2003-05-28 07:07:41 51°10.73 2°41.48 260.4 14.7 256 11.8
2003-05-28 07:07:45 51°10.72 2°41.46 260.2 14.7 256 11.9
2003-05-28 07:07:55 51°10.71 2°41.39 260 14.7 256 11.8
2003-05-28 07:08:01 51°10.71 2°41.36 260.1 14.7 256 11.8
2003-05-28 07:08:05 51°10.7 2°41.33 260.3 14.7 256 11.8
2003-05-28 07:08:09 51°10.7 2°41.31 260.6 14.7 256 11.7
2003-05-28 07:08:15 51°10.69 2°41.27 260.3 14.7 255 11.8
2003-05-28 07:08:21 51°10.69 2°41.23 260.3 14.7 256 11.8
2003-05-28 07:08:25 51°10.68 2°41.2 260.3 14.7 256 11.8
2003-05-28 07:08:35 51°10.67 2°41.14 260.2 14.7 256 11.8
2003-05-28 07:08:37 51°10.67 2°41.13 260.1 14.7 256 11.8
2003-05-28 07:08:45 51°10.66 2°41.08 260 14.7 255 11.8
2003-05-28 07:08:49 51°10.66 2°41.05 260 14.7 256 11.8
2003-05-28 07:08:53 51°10.66 2°41.03 259.8 14.7 255 11.8
2003-05-28 07:09:01 51°10.65 2°40.98 259.8 14.7 256 11.8
2003-05-28 07:09:05 51°10.64 2°40.95 260.5 14.7 256 11.8
2003-05-28 07:09:09 51°10.64 2°40.93 260.5 14.7 256 11.8
2003-05-28 07:09:15 51°10.63 2°40.89 260.5 14.7 256 11.9
2003-05-28 07:09:19 51°10.63 2°40.87 260.5 14.7 256 11.9
2003-05-28 07:09:25 51°10.62 2°40.83 260.3 14.7 256 11.9
2003-05-28 07:09:35 51°10.61 2°40.77 260.7 14.7 256 12
2003-05-28 07:09:39 51°10.61 2°40.74 260.5 14.7 256 12
2003-05-28 07:09:45 51°10.6 2°40.7 260.4 14.7 256 12
2003-05-28 07:09:49 51°10.6 2°40.68 260.4 14.7 256 12.1
2003-05-28 07:09:55 51°10.6 2°40.64 260.4 14.7 256 12.2
2003-05-28 07:10:01 51°10.59 2°40.6 260.5 14.7 256 12.2
2003-05-28 07:10:05 51°10.59 2°40.58 260.6 14.7 256 12.3
2003-05-28 07:10:09 51°10.58 2°40.55 260.6 14.7 256 12.3
2003-05-28 07:10:13 51°10.58 2°40.53 260.5 14.7 256 12.3
2003-05-28 07:10:21 51°10.57 2°40.48 260.1 14.7 255 12.4
2003-05-28 07:10:25 51°10.57 2°40.45 260.2 14.7 256 12.5
2003-05-28 07:10:29 51°10.56 2°40.43 260.3 14.7 256 12.6
2003-05-28 07:10:33 51°10.56 2°40.4 260.2 14.7 256 12.6
2003-05-28 07:10:47 51°10.54 2°40.31 260.3 14.7 256 12.7
2003-05-28 07:10:53 51°10.54 2°40.27 260.7 14.7 256 12.7
2003-05-28 07:10:57 51°10.53 2°40.25 260.5 14.7 256 12.7
2003-05-28 07:11:05 51°10.53 2°40.2 260.4 14.7 256 12.8
2003-05-28 07:11:15 51°10.52 2°40.14 260.2 14.7 256 12.9
2003-05-28 07:11:19 51°10.51 2°40.11 260.1 14.7 256 12.9
2003-05-28 07:11:25 51°10.51 2°40.07 259.9 14.7 256 13
2003-05-28 07:11:29 51°10.5 2°40.05 260.3 14.7 256 13
2003-05-28 07:11:35 51°10.5 2°40.01 260.6 14.7 256 13.2
2003-05-28 07:11:39 51°10.49 2°39.98 260.4 14.7 256 13.2
2003-05-28 07:11:45 51°10.49 2°39.95 260.2 14.7 256 13.2
2003-05-28 07:11:49 51°10.48 2°39.92 260 14.8 256 13.4
2003-05-28 07:11:53 51°10.48 2°39.9 260.1 14.8 256 13.4
2003-05-28 07:12:01 51°10.47 2°39.85 260.3 14.8 256 13.4
2003-05-28 07:12:05 51°10.47 2°39.82 260.5 14.8 256 13.5
2003-05-28 07:12:09 51°10.46 2°39.79 261 14.8 257 13.6
2003-05-28 07:12:15 51°10.46 2°39.76 260.7 14.8 256 13.6
2003-05-28 07:12:31 51°10.44 2°39.66 260.4 14.8 256 13.8
2003-05-28 07:12:37 51°10.43 2°39.62 260.4 14.8 256 13.8
2003-05-28 07:12:41 51°10.43 2°39.59 260.1 14.8 256 13.9
2003-05-28 07:12:45 51°10.43 2°39.57 260.1 14.7 256 13.9
2003-05-28 07:12:49 51°10.42 2°39.54 260.5 14.7 256 13.9
2003-05-28 07:12:57 51°10.41 2°39.49 260.5 14.7 256 14
2003-05-28 07:13:01 51°10.41 2°39.47 260.5 14.7 256 14
2003-05-28 07:13:05 51°10.41 2°39.44 260.4 14.7 256 14
2003-05-28 07:13:09 51°10.4 2°39.42 260.2 14.7 256 14.1
2003-05-28 07:13:17 51°10.39 2°39.37 260.2 14.7 256 14.2
2003-05-28 07:13:21 51°10.39 2°39.34 260.4 14.7 256 14.3
2003-05-28 07:13:25 51°10.39 2°39.32 260.5 14.7 256 14.3
2003-05-28 07:13:35 51°10.38 2°39.25 260.2 14.7 256 14.3
2003-05-28 07:13:39 51°10.37 2°39.23 260 14.7 255 14.4
2003-05-28 07:13:45 51°10.37 2°39.19 259.8 14.7 255 14.5
2003-05-28 07:13:49 51°10.36 2°39.16 259.7 14.7 255 14.4
2003-05-28 07:13:55 51°10.35 2°39.13 260.1 14.7 256 14.6
2003-05-28 07:14:01 51°10.35 2°39.09 260.4 14.7 256 14.6
2003-05-28 07:14:05 51°10.34 2°39.06 260.5 14.7 256 14.9
2003-05-28 07:14:15 51°10.34 2°39 260.5 14.7 256 14.9
2003-05-28 07:14:21 51°10.33 2°38.96 260.5 14.7 256 15
2003-05-28 07:14:25 51°10.32 2°38.94 260.2 14.7 256 15.2
2003-05-28 07:14:29 51°10.32 2°38.91 260.2 14.7 256 15.3
2003-05-28 07:14:35 51°10.31 2°38.88 260.3 14.7 256 15.3
2003-05-28 07:14:41 51°10.31 2°38.84 260 14.7 256 15.4
2003-05-28 07:14:45 51°10.3 2°38.81 260 14.7 256 15.4
2003-05-28 07:14:55 51°10.29 2°38.75 260.3 14.7 256 15.5
2003-05-28 07:15:01 51°10.29 2°38.71 260.4 14.7 256 15.5
2003-05-28 07:15:05 51°10.28 2°38.69 260.4 14.7 256 15.6
2003-05-28 07:15:15 51°10.27 2°38.62 260.4 14.7 256 15.6
2003-05-28 07:15:21 51°10.27 2°38.59 260.4 14.7 256 15.5
2003-05-28 07:15:25 51°10.26 2°38.56 260.3 14.7 256 15.4
2003-05-28 07:15:29 51°10.26 2°38.54 260.4 14.7 256 15.2
2003-05-28 07:15:35 51°10.25 2°38.5 260.2 14.7 256 15.1
2003-05-28 07:15:41 51°10.25 2°38.46 260.1 14.7 256 15.1
2003-05-28 07:15:45 51°10.24 2°38.43 260.5 14.7 256 15.1
2003-05-28 07:15:55 51°10.23 2°38.37 260.1 14.7 256 15.2
2003-05-28 07:16:01 51°10.23 2°38.33 260.4 14.7 256 15.4
2003-05-28 07:16:05 51°10.22 2°38.31 260.5 14.8 256 15.5
2003-05-28 07:16:09 51°10.22 2°38.28 260.5 14.8 256 15.6
2003-05-28 07:16:15 51°10.21 2°38.25 260.1 14.8 255 15.7
2003-05-28 07:16:21 51°10.21 2°38.21 260 14.8 256 15.7
2003-05-28 07:16:25 51°10.2 2°38.18 259.9 14.8 255 15.8
2003-05-28 07:16:35 51°10.19 2°38.12 260.5 14.8 256 15.7
2003-05-28 07:16:39 51°10.19 2°38.09 260.5 14.8 256 15.8
2003-05-28 07:16:45 51°10.18 2°38.06 260.3 14.8 256 16
2003-05-28 07:16:49 51°10.18 2°38.03 260.2 14.8 256 16.1
2003-05-28 07:16:55 51°10.17 2°37.99 260.2 14.8 256 16.4
2003-05-28 07:17:01 51°10.17 2°37.95 260.3 14.8 256 16.3
2003-05-28 07:17:05 51°10.16 2°37.93 260.5 14.8 256 16.2
2003-05-28 07:17:15 51°10.15 2°37.87 260 14.8 256 16
2003-05-28 07:17:21 51°10.15 2°37.83 260.3 14.8 256 16.4
2003-05-28 07:17:25 51°10.14 2°37.8 260.4 14.8 256 15.9
2003-05-28 07:17:29 51°10.14 2°37.78 260.4 14.8 256 16.6
2003-05-28 07:17:35 51°10.13 2°37.74 260.5 14.8 256 16.7
2003-05-28 07:17:41 51°10.13 2°37.7 260.5 14.8 256 16.6
2003-05-28 07:17:45 51°10.12 2°37.68 260.5 14.8 256 16.5
2003-05-28 07:17:49 51°10.12 2°37.65 260.5 14.8 256 16.9
2003-05-28 07:17:55 51°10.11 2°37.61 260.5 14.8 256 16.9
2003-05-28 07:18:01 51°10.11 2°37.58 260.1 14.8 255 17
2003-05-28 07:18:05 51°10.1 2°37.55 260.1 14.8 256 17
2003-05-28 07:18:15 51°10.09 2°37.49 260.5 14.8 256 17.1
2003-05-28 07:18:21 51°10.09 2°37.45 260.5 14.8 256 17.2
2003-05-28 07:18:25 51°10.08 2°37.42 260.5 14.8 256 17.2
2003-05-28 07:18:29 51°10.08 2°37.4 260.3 14.8 255 17.2
2003-05-28 07:18:35 51°10.07 2°37.36 260 14.8 255 17.2
2003-05-28 07:18:41 51°10.07 2°37.32 259.8 14.8 256 17.1
2003-05-28 07:18:45 51°10.06 2°37.3 260.3 14.8 256 17.1
2003-05-28 07:18:55 51°10.05 2°37.23 260.5 14.8 256 17.1
2003-05-28 07:19:01 51°10.05 2°37.2 260.4 14.8 256 17.2
2003-05-28 07:19:05 51°10.04 2°37.17 260.3 14.8 255 17.1
2003-05-28 07:19:09 51°10.04 2°37.15 260.2 14.8 256 17.2
2003-05-28 07:19:15 51°10.03 2°37.11 260.1 14.8 255 17.1
2003-05-28 07:19:21 51°10.03 2°37.07 260.1 14.8 256 17.2
2003-05-28 07:19:25 51°10.02 2°37.04 260.1 14.8 255 17.4
2003-05-28 07:19:35 51°10.01 2°36.98 260.5 14.8 256 17.4
2003-05-28 07:19:39 51°10.01 2°36.96 260.6 14.7 256 17.1
2003-05-28 07:19:45 51°10 2°36.92 260.5 14.7 256 17.4
2003-05-28 07:19:55 51°9.99 2°36.86 260.1 14.8 256 17.3
2003-05-28 07:20:01 51°9.99 2°36.82 260.2 14.8 255 17.2
2003-05-28 07:20:05 51°9.98 2°36.79 260.2 14.8 256 17.2
2003-05-28 07:20:09 51°9.98 2°36.77 260.2 14.8 256 17.3
2003-05-28 07:20:15 51°9.97 2°36.73 260.1 14.8 256 17.4
2003-05-28 07:20:21 51°9.97 2°36.69 260.5 14.8 256 17.2
2003-05-28 07:20:25 51°9.96 2°36.67 260.5 14.8 256 17.4
2003-05-28 07:20:35 51°9.95 2°36.6 259.9 14.8 255 17.1
2003-05-28 07:20:41 51°9.95 2°36.56 260.2 14.8 256 17.4
2003-05-28 07:20:45 51°9.94 2°36.54 260.6 14.8 256 17.3
2003-05-28 07:20:49 51°9.94 2°36.51 260.5 14.7 256 16.9
2003-05-28 07:20:53 51°9.93 2°36.49 259.9 14.7 255 17.2
2003-05-28 07:21:11 51°9.92 2°36.38 266.5 14.6 263 17.2
2003-05-28 07:21:17 51°9.92 2°36.34 270.5 14.5 268 17.1
2003-05-28 07:21:21 51°9.92 2°36.31 273.1 14.5 268 17.1
2003-05-28 07:21:25 51°9.92 2°36.29 275 14.4 271 17.2
2003-05-28 07:21:31 51°9.92 2°36.25 277.5 14.4 273 17.2
2003-05-28 07:21:37 51°9.92 2°36.21 281.3 14.3 279 17.4
2003-05-28 07:21:41 51°9.93 2°36.19 285.4 14.3 281 17.4
2003-05-28 07:21:45 51°9.93 2°36.16 289.3 14.3 284 17.5
2003-05-28 07:21:49 51°9.93 2°36.14 292.2 14.3 287 17.5
2003-05-28 07:21:57 51°9.94 2°36.09 294.6 14.2 290 17.6
2003-05-28 07:22:01 51°9.95 2°36.07 296.6 14.2 291 17.6
2003-05-28 07:22:05 51°9.96 2°36.04 300.3 14.1 294 17.7
2003-05-28 07:22:15 51°9.98 2°35.99 307.2 14 302 17.4
2003-05-28 07:22:21 51°9.99 2°35.96 311 13.9 307 17.4
2003-05-28 07:22:26 51°10 2°35.94 315 13.9 310 17.2
2003-05-28 07:22:29 51°10.01 2°35.92 318.8 13.8 313 17
2003-05-28 07:22:35 51°10.03 2°35.9 322 13.8 316 16.7
2003-05-28 07:22:41 51°10.04 2°35.87 324.8 13.8 320 16.3
2003-05-28 07:22:45 51°10.06 2°35.86 327.3 13.7 321 15.6
2003-05-28 07:22:55 51°10.09 2°35.82 332.4 13.7 326 14
2003-05-28 07:23:01 51°10.11 2°35.81 334.9 13.6 330 13.8
2003-05-28 07:23:05 51°10.12 2°35.79 337.2 13.5 331 12.7
2003-05-28 07:23:09 51°10.13 2°35.78 339.5 13.5 333 12
2003-05-28 07:23:13 51°10.15 2°35.77 343.3 13.3 338 11.1
2003-05-28 07:23:21 51°10.17 2°35.76 347.6 13.2 343 10.6
2003-05-28 07:23:25 51°10.19 2°35.75 351.4 13.1 346 10.4
2003-05-28 07:23:29 51°10.2 2°35.75 354.1 13 348 10.3
2003-05-28 07:23:35 51°10.22 2°35.74 356.3 13 350 10.3
2003-05-28 07:23:41 51°10.25 2°35.74 357.8 13 352 10.4
2003-05-28 07:23:45 51°10.26 2°35.74 359 13.1 353 10.5
2003-05-28 07:23:49 51°10.27 2°35.73 0.4 13.1 354 10.2
2003-05-28 07:23:55 51°10.3 2°35.73 3.9 13.1 359 10.4
2003-05-28 07:23:59 51°10.31 2°35.73 7.7 13.1 3 10.5
2003-05-28 07:24:05 51°10.33 2°35.74 10.8 13.1 6 10.4
2003-05-28 07:24:09 51°10.35 2°35.74 13.2 13.1 7 10.7
2003-05-28 07:24:15 51°10.37 2°35.75 14.8 13.1 9 10.6
2003-05-28 07:24:21 51°10.39 2°35.75 15.9 13.1 11 10.7
2003-05-28 07:24:25 51°10.4 2°35.76 16.8 13.1 11 10.7
2003-05-28 07:24:29 51°10.42 2°35.76 17.3 13.1 11 10.6
2003-05-28 07:24:33 51°10.43 2°35.77 17.7 13.1 13 10.4
2003-05-28 07:24:41 51°10.46 2°35.78 18 13.1 13 10.4
2003-05-28 07:24:45 51°10.48 2°35.78 20.4 13.1 16 10.4
2003-05-28 07:24:49 51°10.49 2°35.79 22.1 13.1 17 10.3
2003-05-28 07:24:53 51°10.5 2°35.8 23.3 13.1 19 10.1
2003-05-28 07:25:05 51°10.54 2°35.82 25 13.1 20 10.1
2003-05-28 07:25:13 51°10.57 2°35.84 25.3 13.1 20 10.2
2003-05-28 07:25:17 51°10.58 2°35.84 25.4 13.1 20 10.1
2003-05-28 07:25:21 51°10.6 2°35.85 25.7 13 20 10.1
2003-05-28 07:25:25 51°10.61 2°35.86 25.5 13.1 20 10.3
2003-05-28 07:25:33 51°10.64 2°35.87 25.4 13.1 20 10.3
2003-05-28 07:25:37 51°10.65 2°35.88 25.4 13.1 20 10.4
2003-05-28 07:25:41 51°10.67 2°35.89 25.4 13.1 20 10.3
2003-05-28 07:25:47 51°10.69 2°35.9 25.4 13.1 20 10.4
2003-05-28 07:25:53 51°10.71 2°35.91 25.4 13.1 21 10.4
2003-05-28 07:25:57 51°10.72 2°35.92 27.3 13.1 24 10.3
2003-05-28 07:26:01 51°10.73 2°35.93 30.3 13.1 27 10.3
2003-05-28 07:26:07 51°10.75 2°35.95 32.8 13.1 29 10.5
2003-05-28 07:26:13 51°10.77 2°35.97 35.1 13.1 32 10.4
2003-05-28 07:26:17 51°10.78 2°35.98 36.6 13.1 33 10.5
2003-05-28 07:26:31 51°10.83 2°36.03 38.4 13.1 34 10.6
2003-05-28 07:26:37 51°10.84 2°36.05 38.5 13.1 34 10.7
2003-05-28 07:26:41 51°10.86 2°36.06 38.5 13.2 34 10.6
2003-05-28 07:26:45 51°10.87 2°36.07 38.4 13.1 34 10.6
2003-05-28 07:26:55 51°10.9 2°36.11 38.3 13.1 33 10.8
2003-05-28 07:27:01 51°10.92 2°36.13 37.9 13.1 34 10.7
2003-05-28 07:27:05 51°10.93 2°36.14 37.7 13.1 33 11
2003-05-28 07:27:09 51°10.94 2°36.15 38 13.1 34 10.8
2003-05-28 07:27:15 51°10.96 2°36.17 37.7 13.1 33 10.9
2003-05-28 07:27:21 51°10.98 2°36.19 37.8 13.1 34 10.8
2003-05-28 07:27:25 51°10.99 2°36.2 38 13.1 34 10.9
2003-05-28 07:27:35 51°11.02 2°36.23 38.1 13.1 34 11
2003-05-28 07:27:41 51°11.04 2°36.25 37.7 13.1 33 11
2003-05-28 07:27:45 51°11.05 2°36.27 37.7 13.1 34 11
2003-05-28 07:27:49 51°11.06 2°36.28 37.7 13.1 33 11.1
2003-05-28 07:27:53 51°11.07 2°36.29 37.9 13.2 34 11.2
2003-05-28 07:28:01 51°11.1 2°36.32 38.3 13.1 34 11.1
2003-05-28 07:28:05 51°11.11 2°36.33 38.5 13.1 34 11.2
2003-05-28 07:28:09 51°11.12 2°36.34 38.5 13.1 34 11.1
2003-05-28 07:28:15 51°11.14 2°36.36 38.4 13.1 34 11.1
2003-05-28 07:28:21 51°11.16 2°36.38 38 13.2 33 11.2
2003-05-28 07:28:25 51°11.17 2°36.4 37.7 13.1 33 11.2
2003-05-28 07:28:29 51°11.18 2°36.41 37.6 13.1 33 11.2
2003-05-28 07:28:35 51°11.2 2°36.43 37.6 13.1 33 11.2
2003-05-28 07:28:39 51°11.21 2°36.44 37.7 13.2 33 11.2
2003-05-28 07:28:45 51°11.23 2°36.46 37.9 13.2 34 11.3
2003-05-28 07:28:49 51°11.24 2°36.47 37.7 13.2 33 11.4
2003-05-28 07:28:55 51°11.26 2°36.49 37.5 13.2 33 11.3
2003-05-28 07:29:01 51°11.28 2°36.51 37.3 13.2 33 11.2
2003-05-28 07:29:05 51°11.29 2°36.52 37.3 13.2 33 11.3
2003-05-28 07:29:09 51°11.31 2°36.53 37.6 13.1 33 11.3
2003-05-28 07:29:13 51°11.32 2°36.55 37.7 13.1 34 11.4
2003-05-28 07:29:21 51°11.34 2°36.57 37.7 13.1 33 11.3
2003-05-28 07:29:25 51°11.35 2°36.59 37.6 13.1 33 11.2
2003-05-28 07:29:29 51°11.37 2°36.6 37.4 13.1 33 11.3
2003-05-28 07:29:33 51°11.38 2°36.61 37.7 13.1 34 11.4
2003-05-28 07:29:51 51°11.43 2°36.67 37.9 13.2 33 11.3
2003-05-28 07:29:57 51°11.45 2°36.69 37.9 13.1 33 11.3
2003-05-28 07:30:01 51°11.46 2°36.7 37.9 13.2 33 11.3
2003-05-28 07:30:05 51°11.48 2°36.71 37.9 13.2 33 11.3
2003-05-28 07:30:11 51°11.49 2°36.73 37.5 13.1 33 11.3
2003-05-28 07:30:17 51°11.51 2°36.75 37.3 13.2 33 11.5
2003-05-28 07:30:31 51°11.56 2°36.8 37.5 13.2 33 11.4
2003-05-28 07:30:37 51°11.57 2°36.81 37.6 13.2 33 11.4
2003-05-28 07:30:41 51°11.59 2°36.83 37.6 13.1 33 11.4
2003-05-28 07:30:45 51°11.6 2°36.84 37.4 13.1 33 11.4
2003-05-28 07:30:49 51°11.61 2°36.85 37.1 13.1 33 11.5
2003-05-28 07:30:57 51°11.64 2°36.88 37 13.2 33 11.4
2003-05-28 07:31:01 51°11.65 2°36.89 37.4 13.2 33 11.4
2003-05-28 07:31:05 51°11.66 2°36.9 37.6 13.2 33 11.4
2003-05-28 07:31:09 51°11.67 2°36.92 37.6 13.2 33 11.5
2003-05-28 07:31:17 51°11.7 2°36.94 37.6 13.2 33 11.5
2003-05-28 07:31:21 51°11.71 2°36.95 37.5 13.2 33 11.6
2003-05-28 07:31:25 51°11.72 2°36.97 37.3 13.2 33 11.4
2003-05-28 07:31:35 51°11.75 2°37 37.4 13.2 33 11.6
2003-05-28 07:31:41 51°11.77 2°37.02 37.6 13.2 33 11.7
2003-05-28 07:31:45 51°11.78 2°37.03 37.6 13.2 33 11.2
2003-05-28 07:31:49 51°11.79 2°37.04 37.4 13.2 33 11.5
2003-05-28 07:31:55 51°11.81 2°37.06 37.2 13.2 32 11.5
2003-05-28 07:32:01 51°11.83 2°37.08 37.2 13.1 33 11.4
2003-05-28 07:32:05 51°11.84 2°37.09 37.7 13.2 33 11.5
2003-05-28 07:32:15 51°11.87 2°37.12 37.4 13.2 33 11.6
2003-05-28 07:32:21 51°11.89 2°37.14 37.3 13.2 33 11.4
2003-05-28 07:32:25 51°11.9 2°37.16 37.4 13.2 33 11.6
2003-05-28 07:32:29 51°11.92 2°37.17 37.2 13.2 33 11.5
2003-05-28 07:32:35 51°11.94 2°37.19 37.3 13.1 33 11.4
2003-05-28 07:32:41 51°11.95 2°37.21 37.4 13.1 33 10.4
2003-05-28 07:32:45 51°11.97 2°37.22 37.6 13.1 33 11.7
2003-05-28 07:32:49 51°11.98 2°37.23 37.4 13.2 33 11.5
2003-05-28 07:32:53 51°11.99 2°37.24 37.4 13.1 33 11.6
2003-05-28 07:33:01 51°12.02 2°37.27 37.2 13.1 33 11.4
2003-05-28 07:33:05 51°12.03 2°37.28 37.2 13.1 33 11.5
2003-05-28 07:33:09 51°12.04 2°37.29 37.4 13.1 33 11.4
2003-05-28 07:33:15 51°12.06 2°37.31 37.6 13.1 33 11.3
2003-05-28 07:33:19 51°12.07 2°37.33 37.5 13.1 33 11.7
2003-05-28 07:33:25 51°12.09 2°37.34 37.3 13.1 33 11.5
2003-05-28 07:33:29 51°12.1 2°37.36 37 13.2 32 11.5
2003-05-28 07:33:35 51°12.12 2°37.38 37.1 13.2 33 11.6
2003-05-28 07:33:39 51°12.13 2°37.39 37.4 13.2 33 11.6
2003-05-28 07:33:45 51°12.15 2°37.41 37.7 13.2 33 11.4
2003-05-28 07:33:55 51°12.18 2°37.44 37.7 13.1 33 11.7
2003-05-28 07:34:01 51°12.2 2°37.46 37.6 13.1 33 11.7
2003-05-28 07:34:05 51°12.21 2°37.47 37.5 13.1 33 11.5
2003-05-28 07:34:09 51°12.22 2°37.49 37.3 13.1 33 11.6
2003-05-28 07:34:13 51°12.24 2°37.5 37.1 13.1 33 11.6
2003-05-28 07:34:37 51°12.31 2°37.57 37.2 13.1 33 11.7
2003-05-28 07:34:45 51°12.33 2°37.6 37.2 13.1 33 11.8
2003-05-28 07:34:49 51°12.35 2°37.61 37.3 13.2 33 11.8
2003-05-28 07:34:53 51°12.36 2°37.62 37.3 13.1 33 11.8
2003-05-28 07:34:57 51°12.37 2°37.63 37.4 13.2 33 12
2003-05-28 07:35:07 51°12.4 2°37.67 37.6 13.1 33 12
2003-05-28 07:35:13 51°12.42 2°37.68 37.5 13.1 33 12
2003-05-28 07:35:17 51°12.43 2°37.7 37.3 13.2 33 12
2003-05-28 07:35:21 51°12.44 2°37.71 37 13.1 32 12.2
2003-05-28 07:35:27 51°12.46 2°37.73 37 13.1 33 12.2
2003-05-28 07:35:33 51°12.48 2°37.75 36.9 13.2 32 12.2
2003-05-28 07:35:37 51°12.49 2°37.76 37.1 13.2 33 12.1
2003-05-28 07:35:41 51°12.51 2°37.77 37.5 13.2 33 12.2
2003-05-28 07:35:45 51°12.52 2°37.79 37.5 13.1 33 12.3
2003-05-28 07:35:53 51°12.54 2°37.81 37.3 13.2 33 12.3
2003-05-28 07:35:57 51°12.56 2°37.82 37 13.2 33 12.4
2003-05-28 07:36:01 51°12.57 2°37.84 37 13.1 33 12.4
2003-05-28 07:36:05 51°12.58 2°37.85 37.7 13.2 33 12.4
2003-05-28 07:36:13 51°12.6 2°37.87 37.7 13.2 33 12.5
2003-05-28 07:36:17 51°12.62 2°37.89 37.1 13.1 33 12.4
2003-05-28 07:36:21 51°12.63 2°37.9 37.4 13.1 33 12.6
2003-05-28 07:36:25 51°12.64 2°37.91 37.5 13.2 33 12.6
2003-05-28 07:36:33 51°12.67 2°37.94 37 13.1 32 12.6
2003-05-28 07:36:37 51°12.68 2°37.95 37.4 13.1 34 12.7
2003-05-28 07:36:41 51°12.69 2°37.96 37.2 13.2 33 12.7
2003-05-28 07:36:45 51°12.7 2°37.97 37.1 13.1 33 12.6
2003-05-28 07:36:55 51°12.73 2°38.01 37.4 13.1 33 12.7
2003-05-28 07:37:01 51°12.75 2°38.03 37.5 13.1 33 12.6
2003-05-28 07:37:05 51°12.76 2°38.04 37.2 13.1 33 12.8
2003-05-28 07:37:09 51°12.78 2°38.05 37.4 13.1 33 12.7
2003-05-28 07:37:15 51°12.79 2°38.07 37.4 13.2 33 12.9
2003-05-28 07:37:21 51°12.81 2°38.09 37.3 13.1 33 12.8
2003-05-28 07:37:25 51°12.82 2°38.1 37.2 13.2 33 12.9
2003-05-28 07:37:35 51°12.86 2°38.13 37.7 13.2 33 13.1
2003-05-28 07:37:41 51°12.87 2°38.15 37.4 13.2 33 13.1
2003-05-28 07:37:45 51°12.89 2°38.16 37.3 13.2 33 13.1
2003-05-28 07:37:55 51°12.92 2°38.2 37 13.2 33 13.4
2003-05-28 07:38:01 51°12.94 2°38.21 37 13.2 32 13.2
2003-05-28 07:38:05 51°12.95 2°38.23 37 13.2 33 13.4
2003-05-28 07:38:09 51°12.96 2°38.24 37 13.2 32 13.4
2003-05-28 07:38:15 51°12.98 2°38.26 37 13.2 32 13.4
2003-05-28 07:38:21 51°13 2°38.28 35.4 13.2 29 13.5
2003-05-28 07:38:25 51°13.01 2°38.29 34.2 13.2 29 13.6
2003-05-28 07:38:35 51°13.04 2°38.31 32.7 13.2 28 13.7
2003-05-28 07:38:41 51°13.06 2°38.33 32.3 13.2 27 13.6
2003-05-28 07:38:45 51°13.08 2°38.34 31.9 13.2 27 13.8
2003-05-28 07:38:49 51°13.09 2°38.35 31.5 13.2 27 13.7
2003-05-28 07:38:55 51°13.11 2°38.37 31.7 13.2 27 13.7
2003-05-28 07:39:01 51°13.13 2°38.38 31.9 13.2 27 13.8
2003-05-28 07:39:05 51°13.14 2°38.39 32.2 13.2 28 13.8
2003-05-28 07:39:15 51°13.17 2°38.42 31.7 13.2 27 13.9
2003-05-28 07:39:21 51°13.19 2°38.44 30.2 13.2 24 14
2003-05-28 07:39:25 51°13.21 2°38.44 29.5 13.2 25 14
2003-05-28 07:39:29 51°13.22 2°38.45 28.7 13.2 24 14
2003-05-28 07:39:35 51°13.24 2°38.47 28.3 13.2 23 14
2003-05-28 07:39:41 51°13.26 2°38.48 28 13.2 23 14
2003-05-28 07:39:45 51°13.27 2°38.49 27.6 13.2 22 14
2003-05-28 07:39:49 51°13.29 2°38.5 27.5 13.2 22 14.1
2003-05-28 07:39:55 51°13.31 2°38.51 27.5 13.2 22 14.1
2003-05-28 07:40:01 51°13.33 2°38.53 27.2 13.2 22 14.1
2003-05-28 07:40:05 51°13.34 2°38.54 27.5 13.2 23 14.2
2003-05-28 07:40:15 51°13.38 2°38.56 27.9 13.2 23 14.1
2003-05-28 07:40:21 51°13.4 2°38.57 28 13.2 23 14.1
2003-05-28 07:40:25 51°13.41 2°38.58 28 13.2 23 14.2
2003-05-28 07:40:29 51°13.42 2°38.59 28 13.2 23 14.2
2003-05-28 07:40:35 51°13.44 2°38.6 28 13.2 23 14.2
2003-05-28 07:40:41 51°13.46 2°38.62 28 13.2 23 14.3
2003-05-28 07:40:45 51°13.48 2°38.63 27.7 13.2 23 14.3
2003-05-28 07:40:55 51°13.51 2°38.65 27.5 13.2 23 14.5
2003-05-28 07:41:01 51°13.53 2°38.66 27.6 13.3 23 14.4
2003-05-28 07:41:05 51°13.54 2°38.67 28.2 13.3 24 14.3
2003-05-28 07:41:09 51°13.56 2°38.68 28.2 13.3 23 14.4
2003-05-28 07:41:15 51°13.58 2°38.7 27.8 13.3 23 14.4
2003-05-28 07:41:21 51°13.6 2°38.71 27.8 13.2 23 14.4
2003-05-28 07:41:25 51°13.61 2°38.72 27.6 13.2 23 14.4
2003-05-28 07:41:35 51°13.65 2°38.74 28.1 13.3 23 14.2
2003-05-28 07:41:41 51°13.67 2°38.75 28.1 13.3 23 14.1
2003-05-28 07:41:45 51°13.68 2°38.76 28 13.2 23 14.2
2003-05-28 07:41:49 51°13.69 2°38.77 27.5 13.2 22 14
2003-05-28 07:41:53 51°13.71 2°38.78 24.3 13.3 18 14
2003-05-28 07:42:01 51°13.73 2°38.79 22.4 13.2 17 14
2003-05-28 07:42:05 51°13.75 2°38.8 21 13.2 15 13.9
2003-05-28 07:42:09 51°13.76 2°38.81 19.9 13.2 15 13.9
2003-05-28 07:42:15 51°13.78 2°38.81 18.9 13.3 13 13.8
2003-05-28 07:42:19 51°13.8 2°38.82 18.8 13.2 14 13.6
2003-05-28 07:42:25 51°13.82 2°38.83 18.5 13.3 13 13.6
2003-05-28 07:42:29 51°13.84 2°38.83 18.2 13.3 13 13.5
2003-05-28 07:42:35 51°13.86 2°38.84 18.2 13.3 12 13.4
2003-05-28 07:42:39 51°13.87 2°38.85 17.4 13.2 11 13.3
2003-05-28 07:42:45 51°13.89 2°38.85 13.7 13.2 6 13.2
2003-05-28 07:42:49 51°13.91 2°38.85 8.8 13.1 3 12.9
2003-05-28 07:43:03 51°13.96 2°38.84   13.1 352 12.5
2003-05-28 07:43:07 51°13.97 2°38.84 355 13.1 344 12.4
2003-05-28 07:43:13 51°13.99 2°38.83 348.7 13.1 340 11.9
2003-05-28 07:43:17 51°14.01 2°38.82 344.4 13.1 335 11.6
2003-05-28 07:43:23 51°14.02 2°38.8 337.8 13 328 11.4
2003-05-28 07:43:29 51°14.04 2°38.78 332.4 13 322 11
2003-05-28 07:43:33 51°14.05 2°38.76 327.9 13 317 11.2
2003-05-28 07:43:37 51°14.06 2°38.74 322.8 13.1 313 11.9
2003-05-28 07:43:51 51°14.09 2°38.67 307.4 13.4 298 12.9